sensor_id;sensor_type;location;lat;lon;timestamp;temperature;humidity
17954;DHT22;9102;53.548;9.926;2023-07-24T00:01:13;18.20;99.90
17954;DHT22;9102;53.548;9.926;2023-07-24T00:03:41;18.10;99.90
17954;DHT22;9102;53.548;9.926;2023-07-24T00:06:08;18.10;99.90
17954;DHT22;9102;53.548;9.926;2023-07-24T00:08:35;18.10;99.90
17954;DHT22;9102;53.548;9.926;2023-07-24T00:11:02;18.10;99.90
17954;DHT22;9102;53.548;9.926;2023-07-24T00:13:30;18.00;99.90
17954;DHT22;9102;53.548;9.926;2023-07-24T00:15:57;18.00;99.90
17954;DHT22;9102;53.548;9.926;2023-07-24T00:18:24;18.00;99.90
17954;DHT22;9102;53.548;9.926;2023-07-24T00:20:52;18.00;99.90
17954;DHT22;9102;53.548;9.926;2023-07-24T00:23:19;18.00;99.90
17954;DHT22;9102;53.548;9.926;2023-07-24T00:25:46;18.00;99.90
17954;DHT22;9102;53.548;9.926;2023-07-24T00:28:13;18.00;99.90
17954;DHT22;9102;53.548;9.926;2023-07-24T00:30:40;17.90;99.90
17954;DHT22;9102;53.548;9.926;2023-07-24T00:33:07;17.90;99.90
17954;DHT22;9102;53.548;9.926;2023-07-24T00:35:34;17.90;99.90
17954;DHT22;9102;53.548;9.926;2023-07-24T00:38:02;17.90;99.90
17954;DHT22;9102;53.548;9.926;2023-07-24T00:40:29;17.80;99.90
17954;DHT22;9102;53.548;9.926;2023-07-24T00:42:56;17.90;99.90
17954;DHT22;9102;53.548;9.926;2023-07-24T00:45:23;17.80;99.90
17954;DHT22;9102;53.548;9.926;2023-07-24T00:47:50;17.90;99.90
17954;DHT22;9102;53.548;9.926;2023-07-24T00:50:18;18.00;99.90
17954;DHT22;9102;53.548;9.926;2023-07-24T00:52:45;17.90;99.90
17954;DHT22;9102;53.548;9.926;2023-07-24T00:55:14;17.90;99.90
17954;DHT22;9102;53.548;9.926;2023-07-24T00:57:42;18.00;99.90
17954;DHT22;9102;53.548;9.926;2023-07-24T01:00:11;18.00;99.90
17954;DHT22;9102;53.548;9.926;2023-07-24T01:02:38;17.90;99.90
17954;DHT22;9102;53.548;9.926;2023-07-24T01:05:05;17.90;99.90
17954;DHT22;9102;53.548;9.926;2023-07-24T01:07:32;17.90;99.90
17954;DHT22;9102;53.548;9.926;2023-07-24T01:09:59;17.90;99.90
17954;DHT22;9102;53.548;9.926;2023-07-24T01:12:32;17.90;99.90
17954;DHT22;9102;53.548;9.926;2023-07-24T01:15:08;17.90;99.90
17954;DHT22;9102;53.548;9.926;2023-07-24T01:17:43;17.90;99.90
17954;DHT22;9102;53.548;9.926;2023-07-24T01:20:11;17.90;99.90
17954;DHT22;9102;53.548;9.926;2023-07-24T01:22:48;17.90;99.90
17954;DHT22;9102;53.548;9.926;2023-07-24T01:25:27;18.00;99.90
17954;DHT22;9102;53.548;9.926;2023-07-24T01:27:58;17.90;99.90
17954;DHT22;9102;53.548;9.926;2023-07-24T01:30:25;17.90;99.90
17954;DHT22;9102;53.548;9.926;2023-07-24T01:32:52;17.90;99.90
17954;DHT22;9102;53.548;9.926;2023-07-24T01:35:19;17.90;99.90
17954;DHT22;9102;53.548;9.926;2023-07-24T01:37:47;17.90;99.90
17954;DHT22;9102;53.548;9.926;2023-07-24T01:40:15;17.90;99.90
17954;DHT22;9102;53.548;9.926;2023-07-24T01:42:42;17.80;99.90
17954;DHT22;9102;53.548;9.926;2023-07-24T01:45:11;17.90;99.90
17954;DHT22;9102;53.548;9.926;2023-07-24T01:47:38;17.80;99.90
17954;DHT22;9102;53.548;9.926;2023-07-24T01:50:06;17.90;99.90
17954;DHT22;9102;53.548;9.926;2023-07-24T01:52:33;17.90;99.90
17954;DHT22;9102;53.548;9.926;2023-07-24T01:55:00;17.90;99.90
17954;DHT22;9102;53.548;9.926;2023-07-24T01:57:26;18.00;99.90
17954;DHT22;9102;53.548;9.926;2023-07-24T01:59:53;18.00;99.90
17954;DHT22;9102;53.548;9.926;2023-07-24T02:02:21;18.00;99.90
17954;DHT22;9102;53.548;9.926;2023-07-24T02:04:48;18.00;99.90
17954;DHT22;9102;53.548;9.926;2023-07-24T02:07:15;18.10;99.90
17954;DHT22;9102;53.548;9.926;2023-07-24T02:09:42;18.00;99.90
17954;DHT22;9102;53.548;9.926;2023-07-24T02:12:09;18.00;99.90
17954;DHT22;9102;53.548;9.926;2023-07-24T02:14:36;18.00;99.90
17954;DHT22;9102;53.548;9.926;2023-07-24T02:17:03;17.90;99.90
17954;DHT22;9102;53.548;9.926;2023-07-24T02:19:31;17.90;99.90
17954;DHT22;9102;53.548;9.926;2023-07-24T02:21:57;18.00;99.90
17954;DHT22;9102;53.548;9.926;2023-07-24T02:24:24;17.90;99.90
17954;DHT22;9102;53.548;9.926;2023-07-24T02:26:51;18.00;99.90
17954;DHT22;9102;53.548;9.926;2023-07-24T02:29:18;18.00;99.90
17954;DHT22;9102;53.548;9.926;2023-07-24T02:31:45;17.90;99.90
17954;DHT22;9102;53.548;9.926;2023-07-24T02:34:11;18.00;99.90
17954;DHT22;9102;53.548;9.926;2023-07-24T02:36:40;17.90;99.90
17954;DHT22;9102;53.548;9.926;2023-07-24T02:39:06;18.00;99.90
17954;DHT22;9102;53.548;9.926;2023-07-24T02:41:33;17.90;99.90
17954;DHT22;9102;53.548;9.926;2023-07-24T02:44:01;17.80;99.90
17954;DHT22;9102;53.548;9.926;2023-07-24T02:46:28;17.70;99.90
17954;DHT22;9102;53.548;9.926;2023-07-24T02:48:56;17.80;99.90
17954;DHT22;9102;53.548;9.926;2023-07-24T02:51:23;17.80;99.90
17954;DHT22;9102;53.548;9.926;2023-07-24T02:53:53;17.80;99.90
17954;DHT22;9102;53.548;9.926;2023-07-24T02:56:20;17.70;99.90
17954;DHT22;9102;53.548;9.926;2023-07-24T02:58:47;17.70;99.90
17954;DHT22;9102;53.548;9.926;2023-07-24T03:01:14;17.70;99.90
17954;DHT22;9102;53.548;9.926;2023-07-24T03:03:41;17.70;99.90
17954;DHT22;9102;53.548;9.926;2023-07-24T03:06:08;17.60;99.90
17954;DHT22;9102;53.548;9.926;2023-07-24T03:08:34;17.80;99.90
17954;DHT22;9102;53.548;9.926;2023-07-24T03:11:04;17.90;99.90
17954;DHT22;9102;53.548;9.926;2023-07-24T03:13:31;17.80;99.90
17954;DHT22;9102;53.548;9.926;2023-07-24T03:15:58;17.80;99.90
17954;DHT22;9102;53.548;9.926;2023-07-24T03:18:25;17.80;99.90
17954;DHT22;9102;53.548;9.926;2023-07-24T03:20:52;17.90;99.90
17954;DHT22;9102;53.548;9.926;2023-07-24T03:23:19;17.90;99.90
17954;DHT22;9102;53.548;9.926;2023-07-24T03:25:47;17.90;99.90
17954;DHT22;9102;53.548;9.926;2023-07-24T03:28:15;17.90;99.90
17954;DHT22;9102;53.548;9.926;2023-07-24T03:30:42;17.90;99.90
17954;DHT22;9102;53.548;9.926;2023-07-24T03:33:08;17.90;99.90
17954;DHT22;9102;53.548;9.926;2023-07-24T03:35:37;17.90;99.90
17954;DHT22;9102;53.548;9.926;2023-07-24T03:38:04;17.80;99.90
17954;DHT22;9102;53.548;9.926;2023-07-24T03:40:31;17.80;99.90
17954;DHT22;9102;53.548;9.926;2023-07-24T03:42:58;17.60;99.90
17954;DHT22;9102;53.548;9.926;2023-07-24T03:45:26;17.60;99.90
17954;DHT22;9102;53.548;9.926;2023-07-24T03:47:53;17.60;99.90
17954;DHT22;9102;53.548;9.926;2023-07-24T03:50:19;17.50;99.90
17954;DHT22;9102;53.548;9.926;2023-07-24T03:52:46;17.50;99.90
17954;DHT22;9102;53.548;9.926;2023-07-24T03:55:14;17.40;99.90
17954;DHT22;9102;53.548;9.926;2023-07-24T03:57:41;17.40;99.90
17954;DHT22;9102;53.548;9.926;2023-07-24T04:00:09;17.50;99.90
17954;DHT22;9102;53.548;9.926;2023-07-24T04:02:37;17.50;99.90
17954;DHT22;9102;53.548;9.926;2023-07-24T04:05:05;17.50;99.90
17954;DHT22;9102;53.548;9.926;2023-07-24T04:07:32;17.50;99.90
17954;DHT22;9102;53.548;9.926;2023-07-24T04:09:59;17.60;99.90
17954;DHT22;9102;53.548;9.926;2023-07-24T04:12:25;17.50;99.90
17954;DHT22;9102;53.548;9.926;2023-07-24T04:14:52;17.50;99.90
17954;DHT22;9102;53.548;9.926;2023-07-24T04:17:19;17.50;99.90
17954;DHT22;9102;53.548;9.926;2023-07-24T04:19:47;17.50;99.90
17954;DHT22;9102;53.548;9.926;2023-07-24T04:22:14;17.50;99.90
17954;DHT22;9102;53.548;9.926;2023-07-24T04:24:41;17.50;99.90
17954;DHT22;9102;53.548;9.926;2023-07-24T04:27:08;17.50;99.90
17954;DHT22;9102;53.548;9.926;2023-07-24T04:29:35;17.50;99.90
17954;DHT22;9102;53.548;9.926;2023-07-24T04:32:02;17.60;99.90
17954;DHT22;9102;53.548;9.926;2023-07-24T04:34:29;17.70;99.90
17954;DHT22;9102;53.548;9.926;2023-07-24T04:36:57;17.70;99.90
17954;DHT22;9102;53.548;9.926;2023-07-24T04:39:24;17.80;99.90
17954;DHT22;9102;53.548;9.926;2023-07-24T04:41:51;17.80;99.90
17954;DHT22;9102;53.548;9.926;2023-07-24T04:44:18;17.80;99.90
17954;DHT22;9102;53.548;9.926;2023-07-24T04:46:45;17.90;99.90
17954;DHT22;9102;53.548;9.926;2023-07-24T04:49:12;18.00;99.90
17954;DHT22;9102;53.548;9.926;2023-07-24T04:51:38;18.10;99.90
17954;DHT22;9102;53.548;9.926;2023-07-24T04:54:07;18.10;99.90
17954;DHT22;9102;53.548;9.926;2023-07-24T04:56:34;18.20;99.90
17954;DHT22;9102;53.548;9.926;2023-07-24T04:59:01;18.30;99.90
17954;DHT22;9102;53.548;9.926;2023-07-24T05:01:27;18.30;99.90
17954;DHT22;9102;53.548;9.926;2023-07-24T05:03:54;18.30;99.90
17954;DHT22;9102;53.548;9.926;2023-07-24T05:06:21;18.30;99.90
17954;DHT22;9102;53.548;9.926;2023-07-24T05:08:49;18.30;99.90
17954;DHT22;9102;53.548;9.926;2023-07-24T05:11:17;18.40;99.90
17954;DHT22;9102;53.548;9.926;2023-07-24T05:13:44;18.40;99.90
17954;DHT22;9102;53.548;9.926;2023-07-24T05:16:10;18.50;99.90
17954;DHT22;9102;53.548;9.926;2023-07-24T05:18:37;18.70;99.90
17954;DHT22;9102;53.548;9.926;2023-07-24T05:21:04;18.80;99.90
17954;DHT22;9102;53.548;9.926;2023-07-24T05:23:31;18.80;99.90
17954;DHT22;9102;53.548;9.926;2023-07-24T05:25:58;19.00;99.90
17954;DHT22;9102;53.548;9.926;2023-07-24T05:28:27;19.20;99.90
17954;DHT22;9102;53.548;9.926;2023-07-24T05:30:54;19.20;99.90
17954;DHT22;9102;53.548;9.926;2023-07-24T05:33:21;19.20;99.90
17954;DHT22;9102;53.548;9.926;2023-07-24T05:35:49;19.20;99.90
17954;DHT22;9102;53.548;9.926;2023-07-24T05:38:15;19.10;99.90
17954;DHT22;9102;53.548;9.926;2023-07-24T05:40:42;19.20;99.90
17954;DHT22;9102;53.548;9.926;2023-07-24T05:43:09;19.10;99.90
17954;DHT22;9102;53.548;9.926;2023-07-24T05:45:37;19.20;99.90
17954;DHT22;9102;53.548;9.926;2023-07-24T05:48:05;19.20;99.90
17954;DHT22;9102;53.548;9.926;2023-07-24T05:50:32;19.20;99.90
17954;DHT22;9102;53.548;9.926;2023-07-24T05:52:59;19.10;99.90
17954;DHT22;9102;53.548;9.926;2023-07-24T05:55:26;19.10;99.90
17954;DHT22;9102;53.548;9.926;2023-07-24T05:57:52;18.90;99.90
17954;DHT22;9102;53.548;9.926;2023-07-24T06:00:20;18.90;99.90
17954;DHT22;9102;53.548;9.926;2023-07-24T06:02:49;18.80;99.90
17954;DHT22;9102;53.548;9.926;2023-07-24T06:05:16;18.70;99.90
17954;DHT22;9102;53.548;9.926;2023-07-24T06:07:45;18.70;99.90
17954;DHT22;9102;53.548;9.926;2023-07-24T06:10:12;18.70;99.90
17954;DHT22;9102;53.548;9.926;2023-07-24T06:12:39;18.70;99.90
17954;DHT22;9102;53.548;9.926;2023-07-24T06:15:07;18.90;99.90
17954;DHT22;9102;53.548;9.926;2023-07-24T06:17:33;18.90;99.90
17954;DHT22;9102;53.548;9.926;2023-07-24T06:20:02;19.00;99.90
17954;DHT22;9102;53.548;9.926;2023-07-24T06:22:29;19.10;99.90
17954;DHT22;9102;53.548;9.926;2023-07-24T06:24:56;19.10;99.90
17954;DHT22;9102;53.548;9.926;2023-07-24T06:27:23;19.10;99.90
17954;DHT22;9102;53.548;9.926;2023-07-24T06:29:50;19.10;99.90
17954;DHT22;9102;53.548;9.926;2023-07-24T06:32:19;19.10;99.90
17954;DHT22;9102;53.548;9.926;2023-07-24T06:34:46;19.10;99.90
17954;DHT22;9102;53.548;9.926;2023-07-24T06:37:15;19.30;99.90
17954;DHT22;9102;53.548;9.926;2023-07-24T06:39:41;19.50;99.90
17954;DHT22;9102;53.548;9.926;2023-07-24T06:42:09;19.70;99.90
17954;DHT22;9102;53.548;9.926;2023-07-24T06:44:36;19.80;99.90
17954;DHT22;9102;53.548;9.926;2023-07-24T06:47:03;20.00;99.90
17954;DHT22;9102;53.548;9.926;2023-07-24T06:49:30;20.10;99.90
17954;DHT22;9102;53.548;9.926;2023-07-24T06:51:57;20.10;99.90
17954;DHT22;9102;53.548;9.926;2023-07-24T06:54:26;20.20;99.90
17954;DHT22;9102;53.548;9.926;2023-07-24T06:56:53;20.20;99.90
17954;DHT22;9102;53.548;9.926;2023-07-24T06:59:20;20.20;99.90
17954;DHT22;9102;53.548;9.926;2023-07-24T07:01:47;20.20;99.90
17954;DHT22;9102;53.548;9.926;2023-07-24T07:04:14;20.00;99.90
17954;DHT22;9102;53.548;9.926;2023-07-24T07:06:41;19.90;99.90
17954;DHT22;9102;53.548;9.926;2023-07-24T07:09:07;19.80;99.90
17954;DHT22;9102;53.548;9.926;2023-07-24T07:11:36;19.60;99.90
17954;DHT22;9102;53.548;9.926;2023-07-24T07:14:02;19.70;99.90
17954;DHT22;9102;53.548;9.926;2023-07-24T07:16:29;19.60;99.90
17954;DHT22;9102;53.548;9.926;2023-07-24T07:18:56;19.50;99.90
17954;DHT22;9102;53.548;9.926;2023-07-24T07:21:23;19.50;99.90
17954;DHT22;9102;53.548;9.926;2023-07-24T07:23:50;19.40;99.90
17954;DHT22;9102;53.548;9.926;2023-07-24T07:26:18;19.50;99.90
17954;DHT22;9102;53.548;9.926;2023-07-24T07:28:46;19.50;99.90
17954;DHT22;9102;53.548;9.926;2023-07-24T07:31:13;19.40;99.90
17954;DHT22;9102;53.548;9.926;2023-07-24T07:33:39;19.40;99.90
17954;DHT22;9102;53.548;9.926;2023-07-24T07:36:06;19.40;99.90
17954;DHT22;9102;53.548;9.926;2023-07-24T07:38:33;19.50;99.90
17954;DHT22;9102;53.548;9.926;2023-07-24T07:41:04;19.60;99.90
17954;DHT22;9102;53.548;9.926;2023-07-24T07:43:31;19.60;99.90
17954;DHT22;9102;53.548;9.926;2023-07-24T07:45:59;19.60;99.90
17954;DHT22;9102;53.548;9.926;2023-07-24T07:48:26;19.60;99.90
17954;DHT22;9102;53.548;9.926;2023-07-24T07:50:52;19.60;99.90
17954;DHT22;9102;53.548;9.926;2023-07-24T07:53:19;19.60;99.90
17954;DHT22;9102;53.548;9.926;2023-07-24T07:55:46;19.70;99.90
17954;DHT22;9102;53.548;9.926;2023-07-24T07:58:21;19.80;99.90
17954;DHT22;9102;53.548;9.926;2023-07-24T08:00:48;20.00;99.90
17954;DHT22;9102;53.548;9.926;2023-07-24T08:03:16;20.10;99.90
17954;DHT22;9102;53.548;9.926;2023-07-24T08:05:43;20.20;99.90
17954;DHT22;9102;53.548;9.926;2023-07-24T08:08:10;20.30;99.90
17954;DHT22;9102;53.548;9.926;2023-07-24T08:10:37;20.30;99.90
17954;DHT22;9102;53.548;9.926;2023-07-24T08:13:04;20.40;99.90
17954;DHT22;9102;53.548;9.926;2023-07-24T08:15:34;20.30;99.90
17954;DHT22;9102;53.548;9.926;2023-07-24T08:18:01;20.30;99.90
17954;DHT22;9102;53.548;9.926;2023-07-24T08:20:30;20.30;99.90
17954;DHT22;9102;53.548;9.926;2023-07-24T08:22:57;20.40;99.90
17954;DHT22;9102;53.548;9.926;2023-07-24T08:25:25;20.60;99.90
17954;DHT22;9102;53.548;9.926;2023-07-24T08:27:52;20.70;99.90
17954;DHT22;9102;53.548;9.926;2023-07-24T08:30:19;20.80;99.90
17954;DHT22;9102;53.548;9.926;2023-07-24T08:32:46;21.00;99.90
17954;DHT22;9102;53.548;9.926;2023-07-24T08:35:15;21.00;99.90
17954;DHT22;9102;53.548;9.926;2023-07-24T08:37:44;21.00;99.90
17954;DHT22;9102;53.548;9.926;2023-07-24T08:40:11;20.80;99.90
17954;DHT22;9102;53.548;9.926;2023-07-24T08:42:38;20.90;99.90
17954;DHT22;9102;53.548;9.926;2023-07-24T08:45:10;20.80;99.90
17954;DHT22;9102;53.548;9.926;2023-07-24T08:47:39;20.90;99.90
17954;DHT22;9102;53.548;9.926;2023-07-24T08:50:09;20.70;99.90
17954;DHT22;9102;53.548;9.926;2023-07-24T08:52:38;20.70;99.90
17954;DHT22;9102;53.548;9.926;2023-07-24T08:55:09;20.80;99.90
17954;DHT22;9102;53.548;9.926;2023-07-24T08:57:36;21.00;99.90
17954;DHT22;9102;53.548;9.926;2023-07-24T09:00:04;21.50;99.90
17954;DHT22;9102;53.548;9.926;2023-07-24T09:02:33;21.70;99.90
17954;DHT22;9102;53.548;9.926;2023-07-24T09:05:00;21.50;99.90
17954;DHT22;9102;53.548;9.926;2023-07-24T09:07:27;21.60;99.90
17954;DHT22;9102;53.548;9.926;2023-07-24T09:09:54;21.70;99.90
17954;DHT22;9102;53.548;9.926;2023-07-24T09:12:23;21.70;99.90
17954;DHT22;9102;53.548;9.926;2023-07-24T09:15:01;21.80;99.90
17954;DHT22;9102;53.548;9.926;2023-07-24T09:17:28;21.90;99.90
17954;DHT22;9102;53.548;9.926;2023-07-24T09:19:56;22.00;99.90
17954;DHT22;9102;53.548;9.926;2023-07-24T09:22:26;22.00;99.90
17954;DHT22;9102;53.548;9.926;2023-07-24T09:25:00;22.00;99.90
17954;DHT22;9102;53.548;9.926;2023-07-24T09:27:30;21.90;99.90
17954;DHT22;9102;53.548;9.926;2023-07-24T09:29:58;21.80;99.90
17954;DHT22;9102;53.548;9.926;2023-07-24T09:32:26;21.70;99.90
17954;DHT22;9102;53.548;9.926;2023-07-24T09:34:53;21.60;99.90
17954;DHT22;9102;53.548;9.926;2023-07-24T09:37:27;21.50;99.90
17954;DHT22;9102;53.548;9.926;2023-07-24T09:39:54;21.60;99.90
17954;DHT22;9102;53.548;9.926;2023-07-24T09:42:31;21.70;99.90
17954;DHT22;9102;53.548;9.926;2023-07-24T09:45:00;21.90;99.90
17954;DHT22;9102;53.548;9.926;2023-07-24T09:47:27;22.20;99.90
17954;DHT22;9102;53.548;9.926;2023-07-24T09:49:54;22.20;99.90
17954;DHT22;9102;53.548;9.926;2023-07-24T09:52:21;22.00;99.90
17954;DHT22;9102;53.548;9.926;2023-07-24T09:54:55;21.90;99.90
17954;DHT22;9102;53.548;9.926;2023-07-24T09:57:23;21.90;99.90
17954;DHT22;9102;53.548;9.926;2023-07-24T09:59:52;22.10;99.90
17954;DHT22;9102;53.548;9.926;2023-07-24T10:02:20;22.20;99.90
17954;DHT22;9102;53.548;9.926;2023-07-24T10:04:47;22.20;99.90
17954;DHT22;9102;53.548;9.926;2023-07-24T10:07:15;22.30;99.90
17954;DHT22;9102;53.548;9.926;2023-07-24T10:09:47;22.40;99.90
17954;DHT22;9102;53.548;9.926;2023-07-24T10:12:14;22.40;99.90
17954;DHT22;9102;53.548;9.926;2023-07-24T10:14:42;22.50;99.90
17954;DHT22;9102;53.548;9.926;2023-07-24T10:17:10;22.50;99.90
17954;DHT22;9102;53.548;9.926;2023-07-24T10:19:39;22.60;99.90
17954;DHT22;9102;53.548;9.926;2023-07-24T10:22:09;22.70;99.90
17954;DHT22;9102;53.548;9.926;2023-07-24T10:24:35;22.70;99.90
17954;DHT22;9102;53.548;9.926;2023-07-24T10:27:03;22.70;99.90
17954;DHT22;9102;53.548;9.926;2023-07-24T10:29:42;22.70;99.90
17954;DHT22;9102;53.548;9.926;2023-07-24T10:32:20;22.50;99.90
17954;DHT22;9102;53.548;9.926;2023-07-24T10:34:56;22.40;99.90
17954;DHT22;9102;53.548;9.926;2023-07-24T10:37:31;22.40;99.90
17954;DHT22;9102;53.548;9.926;2023-07-24T10:39:58;22.50;99.90
17954;DHT22;9102;53.548;9.926;2023-07-24T10:42:25;22.60;99.90
17954;DHT22;9102;53.548;9.926;2023-07-24T10:45:03;22.70;99.90
17954;DHT22;9102;53.548;9.926;2023-07-24T10:47:31;22.80;99.90
17954;DHT22;9102;53.548;9.926;2023-07-24T10:49:58;22.70;99.90
17954;DHT22;9102;53.548;9.926;2023-07-24T10:52:30;22.80;99.90
17954;DHT22;9102;53.548;9.926;2023-07-24T10:55:00;22.90;99.90
17954;DHT22;9102;53.548;9.926;2023-07-24T10:57:27;22.90;99.90
17954;DHT22;9102;53.548;9.926;2023-07-24T10:59:54;23.00;99.90
17954;DHT22;9102;53.548;9.926;2023-07-24T11:02:21;22.90;99.90
17954;DHT22;9102;53.548;9.926;2023-07-24T11:04:50;23.00;99.90
17954;DHT22;9102;53.548;9.926;2023-07-24T11:07:17;23.10;99.90
17954;DHT22;9102;53.548;9.926;2023-07-24T11:09:44;23.20;99.90
17954;DHT22;9102;53.548;9.926;2023-07-24T11:12:13;23.20;99.90
17954;DHT22;9102;53.548;9.926;2023-07-24T11:14:47;23.30;99.90
17954;DHT22;9102;53.548;9.926;2023-07-24T11:17:17;23.20;99.90
17954;DHT22;9102;53.548;9.926;2023-07-24T11:19:45;23.50;99.90
17954;DHT22;9102;53.548;9.926;2023-07-24T11:22:21;23.60;99.90
17954;DHT22;9102;53.548;9.926;2023-07-24T11:24:52;23.50;99.90
17954;DHT22;9102;53.548;9.926;2023-07-24T11:27:19;23.60;99.90
17954;DHT22;9102;53.548;9.926;2023-07-24T11:29:48;23.70;99.90
17954;DHT22;9102;53.548;9.926;2023-07-24T11:32:18;23.60;99.90
17954;DHT22;9102;53.548;9.926;2023-07-24T11:34:48;23.60;99.90
17954;DHT22;9102;53.548;9.926;2023-07-24T11:37:17;23.70;99.90
17954;DHT22;9102;53.548;9.926;2023-07-24T11:39:55;23.70;99.90
17954;DHT22;9102;53.548;9.926;2023-07-24T11:42:27;23.80;99.90
17954;DHT22;9102;53.548;9.926;2023-07-24T11:44:55;23.50;99.90
17954;DHT22;9102;53.548;9.926;2023-07-24T11:47:24;23.70;99.90
17954;DHT22;9102;53.548;9.926;2023-07-24T11:50:00;23.90;99.90
17954;DHT22;9102;53.548;9.926;2023-07-24T11:52:39;24.40;99.90
17954;DHT22;9102;53.548;9.926;2023-07-24T11:55:07;24.70;99.90
17954;DHT22;9102;53.548;9.926;2023-07-24T11:57:34;25.00;99.90
17954;DHT22;9102;53.548;9.926;2023-07-24T12:00:02;24.90;99.90
17954;DHT22;9102;53.548;9.926;2023-07-24T12:02:31;24.80;99.90
17954;DHT22;9102;53.548;9.926;2023-07-24T12:04:58;24.70;99.90
17954;DHT22;9102;53.548;9.926;2023-07-24T12:07:30;24.60;99.90
17954;DHT22;9102;53.548;9.926;2023-07-24T12:10:00;24.50;99.90
17954;DHT22;9102;53.548;9.926;2023-07-24T12:12:37;24.50;99.90
17954;DHT22;9102;53.548;9.926;2023-07-24T12:15:07;24.40;99.90
17954;DHT22;9102;53.548;9.926;2023-07-24T12:17:35;24.30;99.90
17954;DHT22;9102;53.548;9.926;2023-07-24T12:20:04;24.10;99.90
17954;DHT22;9102;53.548;9.926;2023-07-24T12:22:37;24.00;99.90
17954;DHT22;9102;53.548;9.926;2023-07-24T12:25:06;23.90;99.90
17954;DHT22;9102;53.548;9.926;2023-07-24T12:27:34;24.10;99.90
17954;DHT22;9102;53.548;9.926;2023-07-24T12:30:07;24.20;99.90
17954;DHT22;9102;53.548;9.926;2023-07-24T12:32:34;24.40;99.90
17954;DHT22;9102;53.548;9.926;2023-07-24T12:35:06;24.70;99.90
17954;DHT22;9102;53.548;9.926;2023-07-24T12:37:41;24.90;99.90
17954;DHT22;9102;53.548;9.926;2023-07-24T12:40:10;24.80;99.90
17954;DHT22;9102;53.548;9.926;2023-07-24T12:42:39;24.70;99.90
17954;DHT22;9102;53.548;9.926;2023-07-24T12:45:08;24.60;99.90
17954;DHT22;9102;53.548;9.926;2023-07-24T12:47:35;24.60;99.90
17954;DHT22;9102;53.548;9.926;2023-07-24T12:50:04;24.60;99.90
17954;DHT22;9102;53.548;9.926;2023-07-24T12:52:31;24.60;99.90
17954;DHT22;9102;53.548;9.926;2023-07-24T12:54:58;24.50;99.90
17954;DHT22;9102;53.548;9.926;2023-07-24T12:57:26;24.40;99.90
17954;DHT22;9102;53.548;9.926;2023-07-24T12:59:53;24.30;99.90
17954;DHT22;9102;53.548;9.926;2023-07-24T13:02:20;24.40;99.90
17954;DHT22;9102;53.548;9.926;2023-07-24T13:04:47;24.50;99.90
17954;DHT22;9102;53.548;9.926;2023-07-24T13:07:14;24.50;99.90
17954;DHT22;9102;53.548;9.926;2023-07-24T13:09:40;24.30;99.90
17954;DHT22;9102;53.548;9.926;2023-07-24T13:12:08;24.20;99.90
17954;DHT22;9102;53.548;9.926;2023-07-24T13:14:37;24.40;99.90
17954;DHT22;9102;53.548;9.926;2023-07-24T13:17:04;24.60;99.90
17954;DHT22;9102;53.548;9.926;2023-07-24T13:19:31;24.60;99.90
17954;DHT22;9102;53.548;9.926;2023-07-24T13:21:58;24.50;99.90
17954;DHT22;9102;53.548;9.926;2023-07-24T13:24:24;24.70;99.90
17954;DHT22;9102;53.548;9.926;2023-07-24T13:26:51;24.90;99.90
17954;DHT22;9102;53.548;9.926;2023-07-24T13:29:18;24.70;99.90
17954;DHT22;9102;53.548;9.926;2023-07-24T13:31:46;24.70;99.90
17954;DHT22;9102;53.548;9.926;2023-07-24T13:34:13;24.50;99.90
17954;DHT22;9102;53.548;9.926;2023-07-24T13:36:40;24.30;99.90
17954;DHT22;9102;53.548;9.926;2023-07-24T13:39:06;24.20;99.90
17954;DHT22;9102;53.548;9.926;2023-07-24T13:41:33;24.00;99.90
17954;DHT22;9102;53.548;9.926;2023-07-24T13:44:01;23.70;99.90
17954;DHT22;9102;53.548;9.926;2023-07-24T13:46:28;23.80;99.90
17954;DHT22;9102;53.548;9.926;2023-07-24T13:48:57;24.00;99.90
17954;DHT22;9102;53.548;9.926;2023-07-24T13:51:24;24.10;99.90
17954;DHT22;9102;53.548;9.926;2023-07-24T13:53:50;24.20;99.90
17954;DHT22;9102;53.548;9.926;2023-07-24T13:56:19;24.30;99.90
17954;DHT22;9102;53.548;9.926;2023-07-24T13:58:48;24.40;99.90
17954;DHT22;9102;53.548;9.926;2023-07-24T14:01:14;24.60;99.90
17954;DHT22;9102;53.548;9.926;2023-07-24T14:03:41;24.60;99.90
17954;DHT22;9102;53.548;9.926;2023-07-24T14:06:09;24.70;99.90
17954;DHT22;9102;53.548;9.926;2023-07-24T14:08:36;24.60;99.90
17954;DHT22;9102;53.548;9.926;2023-07-24T14:11:03;24.50;99.90
17954;DHT22;9102;53.548;9.926;2023-07-24T14:13:30;24.50;99.90
17954;DHT22;9102;53.548;9.926;2023-07-24T14:15:56;24.40;99.90
17954;DHT22;9102;53.548;9.926;2023-07-24T14:18:23;24.40;99.90
17954;DHT22;9102;53.548;9.926;2023-07-24T14:20:50;24.40;99.90
17954;DHT22;9102;53.548;9.926;2023-07-24T14:23:21;24.60;99.90
17954;DHT22;9102;53.548;9.926;2023-07-24T14:25:48;24.70;99.90
17954;DHT22;9102;53.548;9.926;2023-07-24T14:28:17;25.00;99.90
17954;DHT22;9102;53.548;9.926;2023-07-24T14:30:47;25.10;99.90
17954;DHT22;9102;53.548;9.926;2023-07-24T14:33:14;25.10;99.90
17954;DHT22;9102;53.548;9.926;2023-07-24T14:35:41;24.90;99.90
17954;DHT22;9102;53.548;9.926;2023-07-24T14:38:07;24.60;99.90
17954;DHT22;9102;53.548;9.926;2023-07-24T14:40:36;24.60;99.90
17954;DHT22;9102;53.548;9.926;2023-07-24T14:43:02;24.50;99.90
17954;DHT22;9102;53.548;9.926;2023-07-24T14:45:29;24.40;99.90
17954;DHT22;9102;53.548;9.926;2023-07-24T14:47:56;24.40;99.90
17954;DHT22;9102;53.548;9.926;2023-07-24T14:50:23;24.20;99.90
17954;DHT22;9102;53.548;9.926;2023-07-24T14:52:50;24.00;99.90
17954;DHT22;9102;53.548;9.926;2023-07-24T14:55:17;23.80;99.90
17954;DHT22;9102;53.548;9.926;2023-07-24T14:57:45;23.80;99.90
17954;DHT22;9102;53.548;9.926;2023-07-24T15:00:13;23.60;99.90
17954;DHT22;9102;53.548;9.926;2023-07-24T15:02:41;23.50;99.90
17954;DHT22;9102;53.548;9.926;2023-07-24T15:05:08;23.30;99.90
17954;DHT22;9102;53.548;9.926;2023-07-24T15:07:35;23.30;99.90
17954;DHT22;9102;53.548;9.926;2023-07-24T15:10:02;23.30;99.90
17954;DHT22;9102;53.548;9.926;2023-07-24T15:12:28;23.30;99.90
17954;DHT22;9102;53.548;9.926;2023-07-24T15:14:57;23.40;99.90
17954;DHT22;9102;53.548;9.926;2023-07-24T15:17:24;23.50;99.90
17954;DHT22;9102;53.548;9.926;2023-07-24T15:19:51;23.60;99.90
17954;DHT22;9102;53.548;9.926;2023-07-24T15:22:17;23.60;99.90
17954;DHT22;9102;53.548;9.926;2023-07-24T15:24:44;23.60;99.90
17954;DHT22;9102;53.548;9.926;2023-07-24T15:27:11;23.50;99.90
17954;DHT22;9102;53.548;9.926;2023-07-24T15:29:38;23.60;99.90
17954;DHT22;9102;53.548;9.926;2023-07-24T15:32:07;23.40;99.90
17954;DHT22;9102;53.548;9.926;2023-07-24T15:34:34;22.80;99.90
17954;DHT22;9102;53.548;9.926;2023-07-24T15:37:01;21.80;99.90
17954;DHT22;9102;53.548;9.926;2023-07-24T15:39:27;20.70;99.90
17954;DHT22;9102;53.548;9.926;2023-07-24T15:41:54;20.10;99.90
17954;DHT22;9102;53.548;9.926;2023-07-24T15:44:21;19.30;99.90
17954;DHT22;9102;53.548;9.926;2023-07-24T15:46:48;18.80;99.90
17954;DHT22;9102;53.548;9.926;2023-07-24T15:49:16;18.80;99.90